createdAt,value
2024-04-30T00:00:06.715Z,4.70
2024-04-30T00:16:45.324Z,4.70
2024-04-30T00:22:51.030Z,4.90
2024-04-30T00:26:04.019Z,4.30
2024-04-30T00:29:17.160Z,4.50
2024-04-30T00:32:37.074Z,4.50
2024-04-30T00:35:51.317Z,4.60
2024-04-30T00:39:22.272Z,4.50
2024-04-30T00:46:12.467Z,4.50
2024-04-30T01:05:48.225Z,4.40
2024-04-30T01:14:56.067Z,5.10
2024-04-30T01:18:10.441Z,4.90
2024-04-30T01:21:26.660Z,4.60
2024-04-30T01:24:38.870Z,4.60
2024-04-30T01:33:45.664Z,4.30
2024-04-30T01:37:01.538Z,4.20
2024-04-30T01:40:15.620Z,4.20
2024-04-30T01:43:30.650Z,4.20
2024-04-30T01:46:48.299Z,4.10
2024-04-30T01:50:01.270Z,4.40
2024-04-30T01:59:31.213Z,4.40
2024-04-30T02:02:43.814Z,4.60
2024-04-30T02:05:57.917Z,4.20
2024-04-30T02:09:15.642Z,4.30
2024-04-30T02:12:28.550Z,4.30
2024-04-30T02:15:42.911Z,4.30
2024-04-30T02:25:14.122Z,4.50
2024-04-30T02:28:27.170Z,4.40
2024-04-30T02:31:38.812Z,4.60
2024-04-30T02:34:51.869Z,4.90
2024-04-30T02:38:05.168Z,4.50
2024-04-30T02:41:18.919Z,4.60
2024-04-30T02:44:34.862Z,5.00
2024-04-30T02:47:49.049Z,4.90
2024-04-30T02:51:01.438Z,4.20
2024-04-30T02:54:15.718Z,4.50
2024-04-30T02:57:29.152Z,4.50
2024-04-30T03:00:43.986Z,4.20
2024-04-30T03:04:01.229Z,4.20
2024-04-30T03:07:13.976Z,4.60
2024-04-30T03:23:29.179Z,4.30
2024-04-30T03:26:45.003Z,4.90
2024-04-30T03:42:35.640Z,4.50
2024-04-30T03:45:43.802Z,4.80
2024-04-30T03:49:01.176Z,5.20
2024-04-30T03:52:13.911Z,4.60
2024-04-30T04:04:20.592Z,5.40
2024-04-30T04:07:31.450Z,5.60
2024-04-30T04:10:27.726Z,5.10
2024-04-30T04:13:26.075Z,5.20
2024-04-30T04:16:17.385Z,5.10
2024-04-30T04:28:09.198Z,4.50
2024-04-30T04:31:15.829Z,5.30
2024-04-30T04:34:36.457Z,4.60
2024-04-30T04:40:14.141Z,5.20
2024-04-30T04:43:36.865Z,4.90
2024-04-30T04:46:45.808Z,5.00
2024-04-30T04:49:58.698Z,4.80
2024-04-30T04:53:12.472Z,5.20
2024-04-30T04:56:25.234Z,5.00
2024-04-30T04:59:37.920Z,5.00
2024-04-30T05:05:32.938Z,5.30
2024-04-30T05:08:45.225Z,5.00
2024-04-30T05:18:38.961Z,4.90
2024-04-30T05:21:51.175Z,4.80
2024-04-30T05:25:02.852Z,4.70
2024-04-30T05:28:12.608Z,4.70
2024-04-30T05:34:25.287Z,4.50
2024-04-30T05:37:45.612Z,4.00
2024-04-30T05:40:55.916Z,5.10
2024-04-30T05:47:12.968Z,4.50
2024-04-30T05:52:54.098Z,4.30
2024-04-30T05:58:27.144Z,4.20
2024-04-30T06:04:09.792Z,3.90
2024-04-30T06:07:13.519Z,4.10
2024-04-30T06:10:27.240Z,4.40
2024-04-30T06:13:33.868Z,4.20
2024-04-30T06:19:27.951Z,3.60
2024-04-30T06:22:48.521Z,3.70
2024-04-30T06:25:50.393Z,3.70
2024-04-30T06:31:27.574Z,4.00
2024-04-30T06:37:27.953Z,3.60
2024-04-30T06:40:33.605Z,3.60
2024-04-30T06:43:54.466Z,3.30
2024-04-30T06:52:49.785Z,3.60
